Time;durP1;ratioP1;P1;durP2;ratioP2;P2;SDS_P1;SDS_P2;PMS_P1;PMS_P2;Temp;Humidity;BMP_temperature;BMP_pressure;BME280_temperature;BME280_humidity;BME280_pressure;Samples;Min_cycle;Max_cycle;Signal;HPM_P1;HPM_P2
2021/04/22 00:01:51;;;;;;;12.50;11.40;;;7.10;99.90;;;7.96;88.12;97952.19;5220479;28;20214;-61
2021/04/22 00:04:23;;;;;;;13.37;12.13;;;7.10;99.90;;;7.95;87.54;97949.50;5207371;28;20202;-63
2021/04/22 00:06:56;;;;;;;13.03;11.83;;;7.10;99.90;;;7.98;87.49;97953.13;5187884;28;20205;-62
2021/04/22 00:09:29;;;;;;;13.93;12.37;;;7.10;99.90;;;7.97;87.64;97956.47;5188123;28;20210;-62
2021/04/22 00:12:01;;;;;;;12.67;11.47;;;7.20;99.90;;;7.98;87.64;97950.59;5209752;28;20209;-61
2021/04/22 00:14:33;;;;;;;13.67;12.37;;;7.10;99.90;;;8.08;86.92;97953.00;5192444;28;20199;-62
2021/04/22 00:17:08;;;;;;;12.87;11.67;;;7.10;99.90;;;8.10;86.41;97951.44;5187595;28;20201;-62
2021/04/22 00:19:40;;;;;;;13.37;12.17;;;7.20;99.90;;;8.08;86.40;97942.81;5206120;28;20193;-63
2021/04/22 00:22:12;;;;;;;12.57;11.47;;;7.10;99.90;;;8.02;86.44;97941.53;5198090;28;20218;-63
2021/04/22 00:24:45;;;;;;;13.00;11.87;;;7.10;99.90;;;8.03;86.52;97948.38;5207116;28;20198;-61
2021/04/22 00:27:17;;;;;;;12.17;11.17;;;7.20;99.90;;;8.02;86.79;97961.88;5219447;28;20201;-63
2021/04/22 00:29:49;;;;;;;13.17;11.97;;;7.20;99.90;;;7.98;86.95;97963.31;5204792;28;20202;-63
2021/04/22 00:32:21;;;;;;;13.03;11.83;;;7.10;99.90;;;8.04;87.31;97953.59;5207036;28;20214;-65
2021/04/22 00:34:53;;;;;;;12.77;11.57;;;7.10;99.90;;;8.04;86.81;97956.13;5191913;28;20578;-63
2021/04/22 00:37:25;;;;;;;12.63;11.53;;;7.20;99.90;;;8.02;86.79;97956.81;5192856;28;20202;-64
2021/04/22 00:39:58;;;;;;;12.07;11.00;;;7.10;99.90;;;7.98;86.39;97965.88;5217435;28;20201;-63
2021/04/22 00:42:30;;;;;;;12.37;11.17;;;7.10;99.90;;;7.98;85.50;97958.22;5216729;28;20222;-63
2021/04/22 00:45:03;;;;;;;12.57;11.47;;;7.00;99.90;;;7.84;85.29;97961.50;5189119;28;20209;-63
2021/04/22 00:47:38;;;;;;;12.53;11.37;;;6.90;99.90;;;7.83;85.59;97964.81;5191500;28;20217;-63
2021/04/22 00:50:16;;;;;;;13.33;12.23;;;6.90;99.90;;;7.85;85.01;97956.53;5186498;28;20202;-63
2021/04/22 00:52:49;;;;;;;13.40;12.10;;;6.90;99.90;;;7.85;85.48;97958.19;5188329;28;20229;-63
2021/04/22 00:55:22;;;;;;;13.90;12.50;;;6.90;99.90;;;7.87;85.05;97959.19;5203314;28;20198;-64
2021/04/22 00:57:55;;;;;;;13.20;12.03;;;7.00;99.90;;;7.89;84.86;97949.97;5194993;28;20203;-62
2021/04/22 01:00:32;;;;;;;12.20;11.13;;;7.00;99.90;;;7.82;84.93;97945.25;5206076;28;20206;-63
2021/04/22 01:03:04;;;;;;;13.90;12.60;;;6.90;99.90;;;7.84;84.96;97952.22;5208878;28;20216;-63
2021/04/22 01:05:39;;;;;;;13.43;12.23;;;7.00;99.90;;;7.83;85.12;97947.88;5227409;28;20201;-61
2021/04/22 01:08:12;;;;;;;14.73;13.43;;;6.90;99.90;;;7.86;85.60;97954.84;5197943;28;20198;-63
2021/04/22 01:10:45;;;;;;;13.93;12.57;;;7.00;99.90;;;7.89;85.75;97950.84;5186457;28;20203;-64
2021/04/22 01:13:17;;;;;;;14.80;13.50;;;6.90;99.90;;;7.92;85.79;97955.28;5199422;28;20214;-62
2021/04/22 01:15:49;;;;;;;13.77;12.20;;;7.10;99.90;;;8.00;86.37;97954.13;5190615;28;20205;-63
2021/04/22 01:18:21;;;;;;;14.50;13.10;;;7.10;99.90;;;8.03;86.52;97949.25;5208083;28;20197;-62
2021/04/22 01:20:54;;;;;;;14.47;12.97;;;7.20;99.90;;;7.96;86.60;97952.19;5206064;28;20201;-63
2021/04/22 01:23:26;;;;;;;13.63;12.43;;;7.20;99.90;;;8.03;86.32;97949.25;5207139;28;20222;-61
2021/04/22 01:25:59;;;;;;;13.77;12.50;;;7.20;99.90;;;8.04;85.33;97966.31;5195732;28;20197;-61
2021/04/22 01:28:30;;;;;;;14.23;12.97;;;7.10;99.90;;;7.97;85.53;97964.09;5190477;28;20208;-63
2021/04/22 01:31:02;;;;;;;13.77;12.47;;;7.10;99.90;;;7.96;85.01;97972.53;5212452;28;20284;-63
2021/04/22 01:33:34;;;;;;;14.23;12.93;;;7.10;99.90;;;7.92;85.49;97975.63;5208390;28;20218;-61
2021/04/22 01:36:08;;;;;;;14.37;12.97;;;7.10;99.90;;;7.97;86.22;97975.97;5205728;28;20300;-63
2021/04/22 01:38:41;;;;;;;14.53;13.03;;;7.10;99.90;;;8.06;86.09;97974.91;5205652;28;20194;-64
2021/04/22 01:41:13;;;;;;;15.00;13.60;;;7.20;99.90;;;8.08;85.70;97975.91;5189937;28;20203;-61
2021/04/22 01:43:45;;;;;;;14.53;13.13;;;7.20;99.90;;;8.05;86.33;97985.00;5203864;28;20636;-61
2021/04/22 01:46:17;;;;;;;13.57;12.40;;;7.20;99.90;;;8.05;86.27;97988.44;5190207;28;20194;-62
2021/04/22 01:48:50;;;;;;;15.70;14.33;;;7.20;99.90;;;8.06;86.40;97984.22;5196141;28;20581;-62
2021/04/22 01:51:22;;;;;;;14.33;13.03;;;7.10;99.90;;;8.03;86.32;97979.78;5189020;28;20742;-62
2021/04/22 01:53:55;;;;;;;14.63;13.13;;;7.10;99.90;;;8.06;85.87;97990.19;5205496;28;20221;-61
2021/04/22 01:56:27;;;;;;;14.83;13.43;;;7.20;99.90;;;8.07;86.87;97991.97;5186518;28;20607;-60
2021/04/22 01:58:59;;;;;;;15.20;13.83;;;7.20;99.90;;;8.07;86.34;97991.97;5192760;28;20203;-61
2021/04/22 02:01:31;;;;;;;14.73;13.27;;;7.20;99.90;;;8.06;85.82;97984.22;5202773;28;20719;-61
2021/04/22 02:04:04;;;;;;;15.07;13.70;;;7.10;99.90;;;8.03;85.92;97995.06;5198582;28;20226;-61
2021/04/22 02:06:36;;;;;;;14.47;13.17;;;7.10;99.90;;;8.00;86.66;97994.84;5203737;28;20201;-63
2021/04/22 02:09:09;;;;;;;14.73;13.23;;;7.10;99.90;;;7.97;86.74;97994.66;5205066;28;20206;-64
2021/04/22 02:11:41;;;;;;;14.33;13.00;;;7.10;99.90;;;7.87;86.43;97993.16;5203248;28;20198;-63
2021/04/22 02:14:13;;;;;;;14.63;13.13;;;7.00;99.90;;;7.87;85.91;97987.19;5191778;28;20237;-63
2021/04/22 02:16:45;;;;;;;13.30;12.07;;;6.90;99.90;;;7.89;86.66;97990.69;5203250;28;20190;-63
2021/04/22 02:19:18;;;;;;;14.90;13.40;;;7.00;99.90;;;7.92;86.33;97990.91;5209552;28;20654;-63
2021/04/22 02:21:50;;;;;;;13.83;12.53;;;7.00;99.90;;;7.86;86.18;97991.34;5206627;28;20217;-63
2021/04/22 02:24:23;;;;;;;13.33;12.20;;;6.90;99.90;;;7.83;86.27;97987.72;5201349;28;20205;-63
2021/04/22 02:26:55;;;;;;;13.70;12.40;;;6.90;99.90;;;7.72;86.11;97986.09;5184780;28;20201;-60
2021/04/22 02:29:27;;;;;;;13.83;12.47;;;6.90;99.90;;;7.74;86.33;97989.63;5188704;28;20642;-63
2021/04/22 02:31:59;;;;;;;13.90;12.50;;;6.90;99.90;;;7.84;86.60;97992.03;5206532;28;20213;-63
2021/04/22 02:34:31;;;;;;;14.13;12.93;;;6.90;99.90;;;7.77;85.95;97989.84;5207988;28;20205;-62
2021/04/22 02:37:03;;;;;;;13.13;11.93;;;6.90;99.90;;;7.71;85.93;97989.41;5205494;28;20212;-63
2021/04/22 02:39:36;;;;;;;13.67;12.27;;;6.80;99.90;;;7.75;86.18;97991.38;5203516;28;20198;-62
2021/04/22 02:42:09;;;;;;;14.67;13.20;;;6.80;99.90;;;7.81;86.02;97997.81;5199004;28;20609;-63
2021/04/22 02:44:44;;;;;;;13.23;12.00;;;6.80;99.90;;;7.70;85.69;98002.91;5200047;28;20208;-63
2021/04/22 02:47:16;;;;;;;13.93;12.63;;;6.80;99.90;;;7.71;86.23;98010.66;5204633;28;20277;-62
2021/04/22 02:49:48;;;;;;;14.57;13.37;;;6.90;99.90;;;7.81;86.16;98019.78;5202828;28;20198;-61
2021/04/22 02:52:20;;;;;;;14.30;13.00;;;6.90;99.90;;;7.80;86.55;98010.41;5224307;22;20207;-62
2021/04/22 02:54:53;;;;;;;14.50;13.20;;;6.90;99.90;;;7.87;86.09;98007.53;5237628;28;20214;-62
2021/04/22 02:57:25;;;;;;;13.83;12.53;;;7.00;99.90;;;7.96;85.42;98008.16;5236440;28;20201;-62
2021/04/22 02:59:57;;;;;;;15.33;13.73;;;6.90;99.90;;;7.93;85.73;98007.06;5245170;28;20659;-61
2021/04/22 03:02:29;;;;;;;15.10;13.60;;;7.00;99.90;;;7.84;85.63;98009.84;5244888;28;20229;-62
2021/04/22 03:05:01;;;;;;;14.47;13.07;;;6.90;99.90;;;7.80;85.84;98011.28;5212007;28;20199;-62
2021/04/22 03:07:33;;;;;;;14.53;13.20;;;6.90;99.90;;;7.81;86.39;98017.25;5225567;28;20292;-62
2021/04/22 03:10:10;;;;;;;14.57;13.17;;;6.90;99.90;;;7.78;86.34;98017.03;5225628;28;20193;-61
2021/04/22 03:12:42;;;;;;;15.70;14.20;;;6.90;99.90;;;7.77;85.80;98017.84;5225267;28;20217;-61
2021/04/22 03:15:16;;;;;;;15.63;14.13;;;6.90;99.90;;;7.77;86.35;98022.91;5225053;28;20200;-61
2021/04/22 03:17:49;;;;;;;16.00;14.50;;;6.90;99.90;;;7.72;86.27;98012.41;5238548;28;20198;-62
2021/04/22 03:20:22;;;;;;;15.37;13.93;;;6.90;99.90;;;7.70;85.24;98013.97;5225401;28;20203;-62
2021/04/22 03:22:55;;;;;;;14.90;13.40;;;6.70;99.90;;;7.62;85.19;98013.44;5225518;28;20229;-62
2021/04/22 03:25:28;;;;;;;13.40;12.30;;;6.60;99.90;;;7.49;85.29;98020.94;5225184;28;20224;-62
2021/04/22 03:28:00;;;;;;;15.23;13.83;;;6.60;99.90;;;7.36;85.71;98011.56;5224888;28;20211;-61
2021/04/22 03:30:35;;;;;;;15.83;14.27;;;6.50;99.90;;;7.30;86.97;98028.06;5224596;28;20200;-62
2021/04/22 03:33:07;;;;;;;14.57;13.27;;;6.50;99.90;;;7.29;87.69;98033.91;5225092;28;20228;-61
2021/04/22 03:35:39;;;;;;;15.40;13.90;;;6.50;99.90;;;7.39;87.27;98051.59;5225499;28;20201;-62
2021/04/22 03:38:14;;;;;;;16.00;14.60;;;6.60;99.90;;;7.42;87.19;98041.66;5228734;28;20200;-61
2021/04/22 03:40:47;;;;;;;16.13;14.63;;;6.60;99.90;;;7.45;87.48;98044.41;5228992;28;20197;-62
2021/04/22 03:43:19;;;;;;;17.03;15.10;;;6.60;99.90;;;7.49;87.62;98045.50;5228665;28;20262;-61
2021/04/22 03:45:51;;;;;;;17.07;15.27;;;6.60;99.90;;;7.45;87.33;98052.91;5228643;28;20660;-62
2021/04/22 03:48:23;;;;;;;17.13;15.50;;;6.60;99.90;;;7.59;87.09;98053.03;5228714;28;20197;-62
2021/04/22 03:50:55;;;;;;;17.37;15.67;;;6.70;99.90;;;7.58;86.83;98057.25;5228346;28;20201;-61
2021/04/22 03:53:27;;;;;;;17.17;15.57;;;6.70;99.90;;;7.52;87.24;98053.34;5228679;28;20286;-61
2021/04/22 03:56:00;;;;;;;16.53;15.13;;;6.60;99.90;;;7.54;86.99;98052.69;5228790;28;20193;-62
2021/04/22 03:58:32;;;;;;;17.53;15.83;;;6.70;99.90;;;7.58;87.93;98054.69;5228439;28;20294;-61
2021/04/22 04:01:04;;;;;;;16.70;15.20;;;6.70;99.90;;;7.59;87.17;98047.94;5227651;28;20196;-61
2021/04/22 04:03:36;;;;;;;16.03;14.43;;;6.70;99.90;;;7.62;87.03;98056.66;5228690;28;20225;-61
2021/04/22 04:06:08;;;;;;;16.67;15.07;;;6.80;99.90;;;7.69;87.63;98057.97;5228576;28;20575;-62
2021/04/22 04:08:40;;;;;;;16.10;14.63;;;6.80;99.90;;;7.73;87.13;98062.53;5228454;28;20204;-62
2021/04/22 04:11:14;;;;;;;16.50;15.00;;;6.80;99.90;;;7.71;87.78;98070.81;5228429;28;20564;-61
2021/04/22 04:13:46;;;;;;;17.53;15.83;;;6.80;99.90;;;7.76;87.57;98074.59;5227887;28;20213;-61
2021/04/22 04:16:18;;;;;;;18.33;16.57;;;6.80;99.90;;;7.79;87.51;98069.72;5228287;28;20223;-62
2021/04/22 04:18:50;;;;;;;17.93;16.27;;;6.90;99.90;;;7.81;87.26;98074.16;5227880;28;20197;-61
2021/04/22 04:21:23;;;;;;;17.63;15.97;;;6.90;99.90;;;7.73;88.12;98082.00;5227886;28;20669;-62
2021/04/22 04:23:55;;;;;;;16.87;15.27;;;6.90;99.90;;;7.74;87.79;98081.22;5227944;28;20232;-62
2021/04/22 04:26:28;;;;;;;17.13;15.53;;;6.80;99.90;;;7.80;87.30;98087.63;5228002;28;20199;-62
2021/04/22 04:29:00;;;;;;;16.27;14.67;;;6.80;99.90;;;7.79;87.26;98090.06;5228243;28;20200;-62
2021/04/22 04:31:32;;;;;;;16.53;14.93;;;6.90;99.90;;;7.80;87.42;98096.91;5228014;28;20205;-62
2021/04/22 04:34:05;;;;;;;16.43;14.83;;;6.90;99.90;;;7.84;86.83;98109.06;5227896;28;20228;-62
2021/04/22 04:36:37;;;;;;;16.30;14.73;;;6.90;99.90;;;7.81;86.47;98101.22;5227626;28;20197;-62
2021/04/22 04:39:09;;;;;;;15.97;14.37;;;6.90;99.90;;;7.81;86.17;98113.94;5228124;28;20197;-62
2021/04/22 04:41:43;;;;;;;17.20;15.50;;;6.90;99.90;;;7.79;86.86;98112.97;5227692;28;20193;-62
2021/04/22 04:44:15;;;;;;;16.63;15.13;;;6.80;99.90;;;7.81;86.84;98116.50;5227918;28;20225;-62
2021/04/22 04:46:47;;;;;;;16.37;14.70;;;6.80;99.90;;;7.81;86.05;98126.66;5233914;28;20623;-62
2021/04/22 04:49:20;;;;;;;16.07;14.47;;;6.80;99.90;;;7.75;86.65;98123.69;5226866;28;20194;-61
2021/04/22 04:51:52;;;;;;;16.67;15.07;;;6.80;99.90;;;7.70;86.78;98130.09;5227679;28;20201;-62
2021/04/22 04:54:24;;;;;;;16.13;14.73;;;6.70;99.90;;;7.77;86.53;98129.78;5227113;28;20228;-62
2021/04/22 04:56:57;;;;;;;15.70;14.10;;;6.80;99.90;;;7.76;86.58;98130.56;5228670;28;20679;-62
2021/04/22 04:59:29;;;;;;;16.20;14.60;;;6.80;99.90;;;7.84;86.11;98129.44;5231928;28;20626;-62
2021/04/22 05:02:02;;;;;;;16.40;14.80;;;6.90;99.90;;;7.94;86.18;98136.09;5227018;28;20197;-62
2021/04/22 05:04:34;;;;;;;16.37;14.77;;;6.90;99.90;;;8.01;86.23;98136.63;5227393;28;20274;-62
2021/04/22 05:07:06;;;;;;;16.57;14.93;;;7.00;99.90;;;8.07;85.67;98134.53;5232254;28;20215;-61
2021/04/22 05:09:38;;;;;;;17.33;15.70;;;7.00;99.90;;;8.12;85.57;98137.38;5223175;28;20193;-61
2021/04/22 05:12:11;;;;;;;17.20;15.60;;;7.00;99.90;;;8.09;85.26;98142.25;5224104;28;20644;-62
2021/04/22 05:14:43;;;;;;;16.73;14.93;;;7.00;99.90;;;8.22;85.58;98144.03;5226686;28;20203;-62
2021/04/22 05:17:16;;;;;;;16.00;14.40;;;7.10;99.90;;;8.28;85.33;98145.34;5226910;28;20197;-62
2021/04/22 05:19:48;;;;;;;16.77;15.10;;;7.20;99.90;;;8.37;85.00;98147.63;5226133;28;20267;-62
2021/04/22 05:22:20;;;;;;;16.67;15.00;;;7.30;99.90;;;8.45;84.74;98149.09;5224798;28;20239;-62
2021/04/22 05:24:54;;;;;;;18.60;16.77;;;7.40;99.90;;;8.52;83.63;98150.41;5236829;28;20193;-62
2021/04/22 05:27:27;;;;;;;18.33;16.57;;;7.50;99.90;;;8.79;83.74;98157.41;5227682;28;20562;-61
2021/04/22 05:29:59;;;;;;;16.37;14.67;;;7.60;99.90;;;8.99;82.51;98165.53;5224123;28;20197;-62
2021/04/22 05:32:31;;;;;;;16.57;14.97;;;7.80;99.90;;;9.17;80.93;98156.56;5225917;28;20220;-62
2021/04/22 05:35:04;;;;;;;16.40;14.90;;;7.90;99.90;;;9.28;80.00;98162.38;5225665;28;20224;-62
2021/04/22 05:37:52;;;;;;;16.37;14.73;;;8.00;99.90;;;9.52;79.68;98167.34;5226666;28;20585;-62
2021/04/22 05:40:25;;;;;;;17.93;15.13;;;8.20;99.90;;;9.73;78.57;98166.22;5237118;28;20193;-62
2021/04/22 05:42:58;;;;;;;17.03;15.10;;;8.40;99.90;;;9.97;76.79;98166.91;5235728;28;20216;-62
2021/04/22 05:45:30;;;;;;;16.83;15.17;;;8.50;99.90;;;10.08;76.90;98168.47;5235236;28;20207;-62
2021/04/22 05:48:02;;;;;;;16.10;14.43;;;8.70;99.90;;;10.20;76.62;98165.81;5231944;28;20197;-62
2021/04/22 05:50:35;;;;;;;16.50;14.87;;;8.70;99.90;;;10.25;75.52;98169.53;5222497;28;20578;-62
2021/04/22 05:53:07;;;;;;;16.30;14.90;;;8.80;99.90;;;10.24;74.15;98179.66;5223737;28;20229;-62
2021/04/22 05:55:39;;;;;;;16.17;14.47;;;8.70;99.90;;;10.29;74.58;98181.75;5226906;28;20212;-62
2021/04/22 05:58:12;;;;;;;15.47;14.00;;;8.70;99.90;;;10.29;74.41;98183.44;5239370;28;20463;-62
2021/04/22 06:00:44;;;;;;;16.33;14.70;;;8.70;99.90;;;10.29;74.53;98196.19;5234176;28;20192;-62
2021/04/22 06:03:16;;;;;;;16.60;15.00;;;8.70;99.90;;;10.21;75.85;98194.78;5233284;28;20221;-62
2021/04/22 06:05:49;;;;;;;16.40;14.90;;;8.70;99.90;;;10.09;75.78;98194.88;5231477;28;20188;-62
2021/04/22 06:08:21;;;;;;;16.13;14.73;;;8.70;99.90;;;10.06;75.42;98207.47;5241447;28;20212;-62
2021/04/22 06:10:53;;;;;;;15.80;14.30;;;8.70;99.90;;;10.08;75.75;98216.13;5229159;28;20201;-62
2021/04/22 06:13:25;;;;;;;16.40;14.77;;;8.80;99.90;;;10.12;76.38;98216.41;5227585;28;20590;-62
2021/04/22 06:15:57;;;;;;;16.80;15.23;;;8.80;99.90;;;10.12;76.68;98218.06;5227300;28;20189;-63
2021/04/22 06:18:29;;;;;;;16.63;15.13;;;8.60;99.90;;;10.04;77.11;98216.69;5234864;28;20199;-63
2021/04/22 06:21:02;;;;;;;17.07;15.57;;;8.60;99.90;;;10.03;77.46;98218.38;5231030;28;20198;-62
2021/04/22 06:23:34;;;;;;;18.33;16.50;;;8.70;99.90;;;10.06;77.03;98217.69;5227643;28;20221;-63
2021/04/22 06:26:06;;;;;;;17.77;15.93;;;8.70;99.90;;;10.07;76.59;98219.44;5225519;28;20193;-62
2021/04/22 06:28:38;;;;;;;17.83;16.23;;;8.60;99.90;;;10.00;77.57;98224.94;5229049;28;20208;-62
2021/04/22 06:31:11;;;;;;;17.30;15.50;;;8.60;99.90;;;9.92;78.16;98232.97;5237726;28;20336;-62
2021/04/22 06:33:43;;;;;;;18.17;16.37;;;8.60;99.90;;;9.88;79.24;98230.16;5225824;28;20700;-62
2021/04/22 06:36:17;;;;;;;19.13;17.43;;;8.70;99.90;;;9.88;79.48;98238.69;5225746;28;20197;-62
2021/04/22 06:38:49;;;;;;;18.43;16.77;;;8.70;99.90;;;9.92;80.19;98247.41;5223717;28;20300;-62
2021/04/22 06:41:22;;;;;;;19.47;17.67;;;8.80;99.90;;;9.94;79.35;98245.88;5239579;28;20200;-62
2021/04/22 06:43:54;;;;;;;18.60;16.80;;;8.80;99.90;;;9.95;78.73;98244.19;5223541;28;20221;-63
2021/04/22 06:46:26;;;;;;;19.40;17.57;;;8.70;99.90;;;10.01;78.73;98255.69;5234674;28;20703;-63
2021/04/22 06:48:59;;;;;;;18.83;17.03;;;8.90;99.90;;;10.06;78.35;98253.44;5227269;28;20248;-62
2021/04/22 06:51:31;;;;;;;18.93;17.03;;;8.90;99.90;;;10.06;79.11;98261.09;5229862;28;20225;-62
2021/04/22 06:54:04;;;;;;;17.90;16.10;;;8.90;99.90;;;10.13;78.77;98264.16;5224582;28;20221;-62
2021/04/22 06:56:37;;;;;;;18.43;16.73;;;9.00;99.90;;;10.25;78.47;98265.75;5226505;28;20937;-62
2021/04/22 06:59:10;;;;;;;20.13;18.23;;;9.00;99.90;;;10.28;78.97;98266.84;5236255;28;20228;-62
2021/04/22 07:01:42;;;;;;;22.90;20.60;;;9.10;99.90;;;10.33;77.84;98270.59;5226675;28;20193;-62
2021/04/22 07:04:14;;;;;;;26.53;23.57;;;9.10;99.90;;;10.35;78.11;98275.78;5219631;28;20320;-62
2021/04/22 07:06:47;;;;;;;25.93;23.17;;;9.20;99.90;;;10.37;75.02;98272.53;5222171;28;20193;-62
2021/04/22 07:09:20;;;;;;;26.17;23.40;;;9.30;99.90;;;10.52;75.53;98271.75;5223133;28;20225;-62
2021/04/22 07:11:52;;;;;;;26.53;23.93;;;9.40;99.90;;;10.59;72.47;98273.94;5225084;28;20201;-62
2021/04/22 07:14:25;;;;;;;26.47;23.70;;;9.50;99.90;;;10.67;73.10;98272.72;5233006;28;20209;-62
2021/04/22 07:17:00;;;;;;;25.60;23.10;;;9.60;99.90;;;10.65;72.77;98274.31;5225342;28;20208;-62
2021/04/22 07:19:32;;;;;;;26.20;23.50;;;9.60;99.90;;;10.69;72.57;98281.38;5226856;28;20230;-62
2021/04/22 07:22:04;;;;;;;26.60;23.07;;;9.60;99.90;;;10.74;72.05;98287.69;5228196;28;20730;-62
2021/04/22 07:24:38;;;;;;;25.83;23.13;;;9.60;99.90;;;10.77;70.58;98289.53;5227414;28;20247;-62
2021/04/22 07:27:11;;;;;;;25.97;23.27;;;9.70;99.90;;;10.65;71.22;98284.53;5226023;28;20204;-62
2021/04/22 07:29:45;;;;;;;25.53;22.93;;;9.70;99.90;;;10.88;70.77;98288.56;5220190;28;20301;-62
2021/04/22 07:32:19;;;;;;;25.10;22.43;;;9.70;99.90;;;10.93;72.47;98293.94;5224856;28;20669;-62
2021/04/22 07:34:52;;;;;;;26.07;23.47;;;9.80;99.90;;;10.86;70.85;98294.34;5227057;28;20677;-62
2021/04/22 07:37:24;;;;;;;27.23;24.00;;;9.80;99.90;;;10.79;70.11;98293.09;5227366;28;20209;-62
2021/04/22 07:39:56;;;;;;;26.05;23.25;;;9.70;99.90;;;10.75;69.70;98297.09;5226749;28;20288;-64
2021/04/22 07:42:28;;;;;;;24.87;22.10;;;9.60;99.90;;;10.58;68.86;98300.25;5225550;28;21016;-63
2021/04/22 07:45:03;;;;;;;26.47;23.23;;;9.70;99.90;;;10.56;70.45;98306.97;5226249;28;20206;-62
2021/04/22 07:47:36;;;;;;;25.63;22.63;;;9.60;99.90;;;10.60;70.11;98303.81;5233436;28;20650;-62
2021/04/22 07:50:11;;;;;;;24.70;21.33;;;9.70;99.90;;;10.66;68.00;98311.00;5225737;28;20209;-62
2021/04/22 07:52:44;;;;;;;23.87;21.30;;;9.70;99.90;;;10.73;67.51;98306.38;5229815;28;20286;-63
2021/04/22 07:55:21;;;;;;;23.13;20.67;;;9.70;99.90;;;10.64;69.12;98312.56;5225603;28;20204;-63
2021/04/22 07:57:53;;;;;;;24.87;20.90;;;9.70;99.90;;;10.67;68.59;98316.19;5231510;28;20203;-63
2021/04/22 08:00:27;;;;;;;22.73;20.33;;;9.70;99.90;;;10.77;68.04;98317.66;5226016;28;20213;-63
2021/04/22 08:03:01;;;;;;;21.97;19.77;;;9.80;99.90;;;10.78;67.50;98322.00;5232005;28;20224;-63
2021/04/22 08:05:37;;;;;;;23.90;21.33;;;9.80;99.90;;;10.81;67.53;98317.94;5225766;28;20247;-62
2021/04/22 08:08:12;;;;;;;23.33;20.17;;;9.90;99.90;;;11.00;67.45;98319.13;5230733;28;20274;-62
2021/04/22 08:10:47;;;;;;;22.03;19.70;;;10.00;99.90;;;10.97;66.30;98318.94;5225590;28;20435;-63
2021/04/22 08:13:21;;;;;;;22.40;20.00;;;10.00;99.90;;;11.04;66.70;98326.19;5229170;28;20692;-62
2021/04/22 08:15:55;;;;;;;22.03;19.73;;;10.00;99.90;;;11.21;66.57;98329.78;5226442;28;20206;-62
2021/04/22 08:18:28;;;;;;;22.67;19.80;;;10.20;99.90;;;11.24;67.98;98324.88;5227032;28;20200;-62
2021/04/22 08:21:01;;;;;;;20.67;18.30;;;10.20;99.90;;;11.41;66.78;98318.22;5239538;28;20207;-62
2021/04/22 08:23:34;;;;;;;22.00;19.73;;;10.40;99.90;;;11.60;66.06;98322.81;5232368;28;20237;-62
2021/04/22 08:26:09;;;;;;;21.13;19.02;;;10.50;99.90;;;11.72;65.34;98331.22;5236730;28;20193;-62
2021/04/22 08:28:41;;;;;;;20.55;18.35;;;10.60;99.90;;;12.04;63.09;98339.97;5238111;28;20189;-62
2021/04/22 08:31:21;;;;;;;22.27;18.00;;;10.90;99.90;;;12.07;63.61;98335.88;5236386;28;20201;-62
2021/04/22 08:33:58;;;;;;;21.13;19.02;;;10.90;99.90;;;12.07;63.16;98338.44;5233168;28;20713;-62
2021/04/22 08:36:30;;;;;;;19.83;17.70;;;10.90;99.90;;;12.14;62.88;98348.28;5236912;28;20741;-62
2021/04/22 08:39:05;;;;;;;19.30;17.40;;;11.00;99.90;;;12.29;61.99;98343.16;5246781;28;20195;-63
2021/04/22 08:41:39;;;;;;;20.63;18.50;;;11.10;99.90;;;12.24;61.31;98351.38;5238486;28;20199;-62
2021/04/22 08:44:11;;;;;;;21.13;18.45;;;11.20;99.90;;;12.22;61.92;98351.31;5246934;28;20231;-62
2021/04/22 08:46:44;;;;;;;20.92;18.52;;;11.20;99.90;;;12.44;61.51;98350.84;5238521;28;20212;-62
2021/04/22 08:49:16;;;;;;;20.60;18.40;;;11.20;99.90;;;12.65;61.28;98351.22;5230299;28;20205;-62
2021/04/22 08:51:49;;;;;;;19.58;17.48;;;11.50;99.90;;;12.91;60.45;98337.28;5234685;28;20207;-62
2021/04/22 08:54:21;;;;;;;19.50;17.65;;;11.60;99.90;;;12.98;58.66;98344.50;5236918;28;20608;-62
2021/04/22 08:56:53;;;;;;;19.33;17.35;;;11.60;99.90;;;13.14;58.21;98342.81;5228000;28;20205;-63
2021/04/22 08:59:25;;;;;;;19.33;17.42;;;11.80;99.90;;;13.16;57.45;98338.59;5224708;28;20552;-63
2021/04/22 09:01:58;;;;;;;18.92;16.95;;;12.00;99.90;;;13.33;56.28;98343.00;5229767;28;20661;-63
2021/04/22 09:04:33;;;;;;;20.40;16.98;;;12.30;99.90;;;13.67;56.15;98347.38;5224601;28;20665;-62
2021/04/22 09:07:05;;;;;;;17.98;16.15;;;12.50;99.90;;;13.94;55.42;98346.25;5247791;28;20205;-62
2021/04/22 09:09:37;;;;;;;17.92;16.13;;;12.80;99.90;;;14.21;54.83;98348.47;5237249;28;20190;-61
2021/04/22 09:12:21;;;;;;;17.25;15.45;;;13.10;99.90;;;14.39;52.17;98344.25;5232890;28;20204;-62
2021/04/22 09:14:57;;;;;;;18.35;16.55;;;13.30;99.90;;;14.59;52.32;98334.09;5243589;28;20276;-62
2021/04/22 09:17:30;;;;;;;17.77;15.98;;;13.30;99.90;;;14.52;53.79;98335.47;5227010;28;20232;-62
2021/04/22 09:20:06;;;;;;;17.30;15.73;;;13.40;99.90;;;14.84;52.23;98339.59;5231118;28;20189;-62
2021/04/22 09:22:41;;;;;;;18.30;16.42;;;13.80;99.90;;;15.18;51.01;98342.91;5248023;28;20307;-63
2021/04/22 09:25:16;;;;;;;17.17;15.38;;;14.10;99.30;;;15.20;50.20;98342.19;5241671;28;20193;-63
2021/04/22 09:27:49;;;;;;;16.90;15.07;;;14.40;98.60;;;15.17;50.04;98343.72;5226879;28;20296;-64
2021/04/22 09:30:33;;;;;;;16.98;15.02;;;14.10;98.20;;;15.28;48.68;98334.78;5232546;28;20197;-62
2021/04/22 09:33:07;;;;;;;15.98;14.40;;;14.10;97.60;;;15.25;49.12;98344.94;5242808;28;20712;-62
2021/04/22 09:35:39;;;;;;;16.00;14.40;;;14.10;97.80;;;15.48;49.31;98335.69;5229703;28;20591;-62
2021/04/22 09:38:13;;;;;;;16.92;14.07;;;14.40;97.50;;;15.61;48.55;98338.03;5226751;28;20197;-63
2021/04/22 09:41:08;;;;;;;15.63;14.07;;;14.50;97.40;;;15.62;49.80;98337.19;5226615;28;20676;-62
2021/04/22 09:43:41;;;;;;;14.32;12.82;;;14.60;97.60;;;15.93;48.05;98336.03;5226930;28;20691;-62
2021/04/22 09:46:22;;;;;;;15.73;14.10;;;15.00;96.40;;;16.05;46.94;98333.09;5226324;28;20571;-62
2021/04/22 09:48:56;;;;;;;14.43;12.95;;;15.00;95.50;;;16.09;46.35;98335.00;5226974;28;20283;-63
2021/04/22 09:51:31;;;;;;;14.38;12.13;;;14.90;95.40;;;15.94;47.49;98330.94;5226596;28;20299;-63
2021/04/22 09:54:10;;;;;;;13.60;12.30;;;14.70;96.20;;;15.98;48.29;98337.97;5240468;28;20653;-63
2021/04/22 09:56:49;;;;;;;14.80;13.35;;;14.80;96.60;;;16.20;48.29;98331.19;5235819;28;20665;-63
2021/04/22 09:59:27;;;;;;;15.05;13.52;;;15.00;96.90;;;16.48;48.00;98330.63;5230199;28;20193;-63
2021/04/22 10:02:04;;;;;;;17.92;15.57;;;15.10;96.80;;;16.57;47.84;98336.19;5229999;28;20648;-63
2021/04/22 10:04:40;;;;;;;16.17;14.57;;;15.30;96.60;;;16.57;48.47;98331.03;5230772;28;20679;-63
2021/04/22 10:07:24;;;;;;;17.35;15.43;;;15.30;97.30;;;16.42;47.34;98330.38;5225047;28;20207;-63
2021/04/22 10:09:58;;;;;;;15.07;13.48;;;15.00;96.00;;;16.21;47.20;98344.13;5205642;28;20206;-63
2021/04/22 10:12:33;;;;;;;16.33;14.73;;;14.80;96.50;;;16.12;47.56;98340.28;5227267;28;20374;-64
2021/04/22 10:15:17;;;;;;;16.42;14.55;;;14.60;96.20;;;15.77;47.86;98337.94;5227941;28;20201;-64
2021/04/22 10:17:54;;;;;;;14.75;13.35;;;14.40;96.60;;;15.72;48.53;98333.41;5236426;28;20200;-63
2021/04/22 10:20:29;;;;;;;16.10;14.48;;;14.30;97.20;;;15.73;48.91;98337.72;5234218;28;20200;-63
2021/04/22 10:23:01;;;;;;;13.98;12.32;;;14.30;97.20;;;15.78;47.13;98333.66;5234547;28;20708;-62
2021/04/22 10:25:37;;;;;;;14.52;13.02;;;14.30;95.80;;;15.82;46.92;98334.66;5237026;28;20212;-62
2021/04/22 10:28:11;;;;;;;14.10;12.57;;;14.20;95.80;;;15.85;46.25;98327.06;5226973;28;20196;-63
2021/04/22 10:30:48;;;;;;;15.27;12.65;;;14.30;95.20;;;15.66;46.50;98333.97;5235345;28;20200;-63
2021/04/22 10:33:20;;;;;;;12.77;11.68;;;14.30;95.10;;;15.87;46.62;98328.03;5225876;28;20215;-62
2021/04/22 10:35:56;;;;;;;13.38;12.10;;;14.50;95.30;;;15.88;47.05;98327.19;5226736;28;20197;-63
2021/04/22 10:38:30;;;;;;;12.75;11.52;;;14.60;95.40;;;15.93;47.65;98318.84;5242173;28;20695;-62
2021/04/22 10:41:03;;;;;;;12.65;11.25;;;14.80;95.40;;;15.92;46.66;98326.53;5238101;28;20219;-62